Time;durP1;ratioP1;P1;durP2;ratioP2;P2;SDS_P1;SDS_P2;PMS_P1;PMS_P2;Temp;Humidity;BMP_temperature;BMP_pressure;BME280_temperature;BME280_humidity;BME280_pressure;Samples;Min_cycle;Max_cycle;Signal;HPM_P1;HPM_P2
2023/08/09 00:00:20;;;;;;;0.53;0.53;;;;;15.60;95948.00;;;;5035365;28;20193;-59
2023/08/09 00:02:47;;;;;;;0.67;0.67;;;;;15.60;95954.00;;;;5035711;28;20189;-61
2023/08/09 00:05:15;;;;;;;0.80;0.80;;;;;15.70;95957.00;;;;5035016;28;20196;-59
2023/08/09 00:07:42;;;;;;;0.80;0.80;;;;;15.60;95954.00;;;;5035103;28;20212;-59
2023/08/09 00:10:10;;;;;;;0.60;0.60;;;;;15.50;95943.00;;;;5035201;28;20219;-61
2023/08/09 00:12:37;;;;;;;0.50;0.50;;;;;15.40;95950.00;;;;5035235;28;20216;-60
2023/08/09 00:15:05;;;;;;;0.70;0.70;;;;;15.30;95941.00;;;;5035023;28;20203;-60
2023/08/09 00:17:34;;;;;;;0.80;0.80;;;;;15.30;95930.00;;;;5035242;28;20219;-59
2023/08/09 00:20:02;;;;;;;0.90;0.90;;;;;15.40;95936.00;;;;5034427;28;20659;-61
2023/08/09 00:22:29;;;;;;;0.70;0.70;;;;;15.40;95946.00;;;;5035194;28;20189;-60
2023/08/09 00:24:57;;;;;;;0.60;0.60;;;;;15.50;95935.00;;;;5034853;28;20200;-60
2023/08/09 00:27:25;;;;;;;2.13;0.70;;;;;15.60;95930.00;;;;5034728;28;20262;-60
2023/08/09 00:29:52;;;;;;;0.60;0.60;;;;;15.40;95928.00;;;;5034763;28;20193;-61
2023/08/09 00:32:20;;;;;;;0.70;0.70;;;;;15.40;95921.00;;;;5035285;28;20673;-61
2023/08/09 00:34:48;;;;;;;0.70;0.70;;;;;15.40;95923.00;;;;5034770;28;20204;-61
2023/08/09 00:37:15;;;;;;;0.60;0.60;;;;;15.40;95916.00;;;;5034711;28;20200;-60
2023/08/09 00:39:42;;;;;;;0.67;0.67;;;;;15.40;95916.00;;;;5034784;28;20196;-60
2023/08/09 00:42:10;;;;;;;0.60;0.60;;;;;15.40;95906.00;;;;5034478;28;20623;-60
2023/08/09 00:44:37;;;;;;;0.93;0.93;;;;;15.40;95915.00;;;;5034926;28;20648;-60
2023/08/09 00:47:06;;;;;;;0.43;0.43;;;;;15.40;95905.00;;;;5034231;28;20221;-60
2023/08/09 00:49:34;;;;;;;0.97;0.97;;;;;15.40;95910.00;;;;5034309;28;20195;-60
2023/08/09 00:52:03;;;;;;;0.77;0.77;;;;;15.40;95906.00;;;;5034477;28;20560;-60
2023/08/09 00:54:31;;;;;;;0.67;0.67;;;;;15.40;95907.00;;;;5034862;28;20201;-61
2023/08/09 00:56:59;;;;;;;0.77;0.77;;;;;15.30;95912.00;;;;5034302;28;20212;-61
2023/08/09 00:59:26;;;;;;;0.90;0.90;;;;;15.40;95916.00;;;;5034309;28;20196;-61
2023/08/09 01:01:54;;;;;;;0.80;0.80;;;;;15.30;95912.00;;;;5034135;28;20232;-61
2023/08/09 01:04:21;;;;;;;0.60;0.60;;;;;15.40;95907.00;;;;5034631;28;20532;-61
2023/08/09 01:06:56;;;;;;;0.60;0.60;;;;;15.40;95914.00;;;;5036253;28;20221;-60
2023/08/09 01:09:34;;;;;;;0.60;0.60;;;;;15.60;95910.00;;;;5034819;28;20176;-60
2023/08/09 01:12:07;;;;;;;0.50;0.50;;;;;15.50;95904.00;;;;5035321;28;20271;-60
2023/08/09 01:14:36;;;;;;;0.50;0.50;;;;;15.40;95901.00;;;;5034540;28;20197;-60
2023/08/09 01:17:04;;;;;;;0.70;0.70;;;;;15.30;95894.00;;;;5034831;28;20217;-60
2023/08/09 01:19:39;;;;;;;0.77;0.77;;;;;15.50;95889.00;;;;5034769;28;20193;-60
2023/08/09 01:22:13;;;;;;;0.50;0.50;;;;;15.50;95883.00;;;;5034469;28;20576;-60
2023/08/09 01:24:42;;;;;;;0.43;0.43;;;;;15.60;95887.00;;;;5034528;28;20264;-60
2023/08/09 01:27:10;;;;;;;0.67;0.67;;;;;15.60;95884.00;;;;5034462;28;20224;-60
2023/08/09 01:29:37;;;;;;;0.83;0.83;;;;;15.60;95889.00;;;;5034423;28;20200;-60
2023/08/09 01:32:05;;;;;;;0.80;0.80;;;;;15.80;95889.00;;;;5033431;28;20272;-60
2023/08/09 01:34:33;;;;;;;0.60;0.60;;;;;15.60;95887.00;;;;5034282;28;20557;-60
2023/08/09 01:37:14;;;;;;;0.70;0.70;;;;;15.70;95900.00;;;;5033553;28;20212;-60
2023/08/09 01:39:46;;;;;;;0.80;0.80;;;;;15.80;95905.00;;;;5033834;28;20307;-60
2023/08/09 01:42:15;;;;;;;0.70;0.70;;;;;15.80;95911.00;;;;5033417;28;20189;-60
2023/08/09 01:44:43;;;;;;;0.50;0.50;;;;;15.70;95916.00;;;;5033412;28;20196;-60
2023/08/09 01:47:11;;;;;;;0.60;0.60;;;;;15.70;95907.00;;;;5033282;28;20308;-60
2023/08/09 01:49:45;;;;;;;0.93;0.93;;;;;15.80;95905.00;;;;5033685;28;20227;-60
2023/08/09 01:52:13;;;;;;;0.50;0.50;;;;;15.80;95914.00;;;;5033691;28;20684;-60
2023/08/09 01:54:40;;;;;;;0.60;0.60;;;;;15.70;95916.00;;;;5033592;28;20193;-60
2023/08/09 01:57:10;;;;;;;0.60;0.60;;;;;15.70;95914.00;;;;5032913;28;20212;-60
2023/08/09 01:59:38;;;;;;;0.50;0.50;;;;;15.70;95916.00;;;;5033860;28;20726;-61
2023/08/09 02:02:07;;;;;;;0.53;0.53;;;;;15.60;95922.00;;;;5032977;28;20212;-60
2023/08/09 02:04:35;;;;;;;0.83;0.80;;;;;15.40;95922.00;;;;5033403;28;20500;-61
2023/08/09 02:07:03;;;;;;;0.50;0.50;;;;;15.40;95926.00;;;;5033207;28;20222;-60
2023/08/09 02:09:30;;;;;;;1.70;1.43;;;;;15.40;95921.00;;;;5033162;28;20276;-61
2023/08/09 02:11:58;;;;;;;0.50;0.50;;;;;15.40;95934.00;;;;5033222;28;20189;-61
2023/08/09 02:14:27;;;;;;;0.60;0.60;;;;;15.30;95923.00;;;;5033210;28;20193;-61
2023/08/09 02:16:54;;;;;;;0.80;0.80;;;;;15.30;95920.00;;;;5032958;28;20219;-61
2023/08/09 02:19:22;;;;;;;0.70;0.70;;;;;15.30;95926.00;;;;5033255;28;20200;-60
2023/08/09 02:21:50;;;;;;;0.80;0.80;;;;;15.30;95927.00;;;;5033186;28;20660;-60
2023/08/09 02:24:17;;;;;;;0.60;0.60;;;;;15.30;95925.00;;;;5033405;28;20201;-61
2023/08/09 02:26:44;;;;;;;0.67;0.67;;;;;15.40;95925.00;;;;5032812;28;20235;-61
2023/08/09 02:29:12;;;;;;;0.63;0.63;;;;;15.40;95917.00;;;;5032933;28;20732;-60
2023/08/09 02:31:41;;;;;;;0.83;0.83;;;;;15.30;95923.00;;;;5033006;28;20195;-60
2023/08/09 02:34:08;;;;;;;1.00;1.00;;;;;15.40;95913.00;;;;5033932;28;20200;-60
2023/08/09 02:36:36;;;;;;;0.60;0.60;;;;;15.40;95917.00;;;;5034447;28;20568;-60
2023/08/09 02:39:04;;;;;;;1.20;1.10;;;;;15.30;95916.00;;;;5033391;28;20279;-60
2023/08/09 02:41:34;;;;;;;0.83;0.83;;;;;15.30;95916.00;;;;5033468;28;20247;-60
2023/08/09 02:44:01;;;;;;;0.67;0.67;;;;;15.50;95916.00;;;;5037245;28;20184;-60
2023/08/09 02:46:29;;;;;;;0.80;0.80;;;;;15.60;95909.00;;;;5036523;28;20228;-60
2023/08/09 02:48:58;;;;;;;0.93;0.93;;;;;15.60;95906.00;;;;5037210;28;20189;-60
2023/08/09 02:51:25;;;;;;;1.07;0.80;;;;;15.60;95912.00;;;;5036515;28;20660;-60
2023/08/09 02:54:00;;;;;;;0.80;0.80;;;;;15.60;95906.00;;;;5036678;28;20237;-60
2023/08/09 02:56:27;;;;;;;2.07;0.90;;;;;15.60;95917.00;;;;5036779;28;20208;-60
2023/08/09 02:58:55;;;;;;;9.53;1.23;;;;;15.70;95915.00;;;;5036718;28;20209;-61
2023/08/09 03:01:23;;;;;;;0.70;0.70;;;;;15.70;95928.00;;;;5036775;28;20200;-61
2023/08/09 03:03:50;;;;;;;0.87;0.87;;;;;15.50;95931.00;;;;5036482;28;20564;-61
2023/08/09 03:06:20;;;;;;;0.90;0.90;;;;;15.60;95928.00;;;;5036515;28;20295;-61
2023/08/09 03:08:48;;;;;;;1.30;1.20;;;;;15.50;95924.00;;;;5036257;28;20220;-61
2023/08/09 03:11:17;;;;;;;0.83;0.83;;;;;15.70;95925.00;;;;5036767;28;20323;-60
2023/08/09 03:13:45;;;;;;;0.60;0.60;;;;;15.60;95930.00;;;;5036467;28;20207;-60
2023/08/09 03:16:13;;;;;;;0.63;0.63;;;;;15.50;95938.00;;;;5034981;28;20213;-60
2023/08/09 03:18:40;;;;;;;0.60;0.60;;;;;15.40;95934.00;;;;5036385;28;20255;-60
2023/08/09 03:21:08;;;;;;;0.70;0.70;;;;;15.30;95935.00;;;;5036474;28;20199;-61
2023/08/09 03:23:37;;;;;;;0.77;0.77;;;;;15.30;95936.00;;;;5036141;28;20197;-61
2023/08/09 03:26:05;;;;;;;0.67;0.67;;;;;15.10;95919.00;;;;5036127;28;20212;-60
2023/08/09 03:28:33;;;;;;;0.70;0.70;;;;;15.10;95923.00;;;;5036036;28;20746;-60
2023/08/09 03:31:01;;;;;;;0.83;0.83;;;;;15.10;95923.00;;;;5035765;28;20199;-60
2023/08/09 03:33:28;;;;;;;0.90;0.90;;;;;15.30;95913.00;;;;5035933;28;20195;-60
2023/08/09 03:35:55;;;;;;;0.57;0.57;;;;;15.30;95921.00;;;;5035734;28;20222;-61
2023/08/09 03:38:23;;;;;;;0.80;0.80;;;;;15.40;95924.00;;;;5035917;28;20193;-59
2023/08/09 03:40:52;;;;;;;0.63;0.63;;;;;15.30;95928.00;;;;5036174;28;20586;-60
2023/08/09 03:43:19;;;;;;;0.80;0.80;;;;;15.60;95937.00;;;;5035750;28;20652;-61
2023/08/09 03:45:46;;;;;;;0.53;0.53;;;;;15.50;95930.00;;;;5035330;28;20193;-59
2023/08/09 03:48:14;;;;;;;1.50;1.10;;;;;15.30;95934.00;;;;5035950;28;20680;-59
2023/08/09 03:50:41;;;;;;;3.70;1.27;;;;;15.30;95928.00;;;;5035942;28;20201;-59
2023/08/09 03:53:09;;;;;;;0.50;0.50;;;;;15.30;95939.00;;;;5035012;28;20193;-59
2023/08/09 03:55:36;;;;;;;0.93;0.93;;;;;15.40;95942.00;;;;5034990;28;20254;-59
2023/08/09 03:58:05;;;;;;;0.70;0.70;;;;;15.30;95942.00;;;;5035228;28;20199;-59
2023/08/09 04:00:32;;;;;;;0.63;0.63;;;;;15.50;95939.00;;;;5035645;28;20193;-60
2023/08/09 04:03:00;;;;;;;0.60;0.60;;;;;15.40;95951.00;;;;5035441;28;20201;-60
2023/08/09 04:05:28;;;;;;;0.80;0.80;;;;;15.60;95949.00;;;;5035282;28;20219;-59
2023/08/09 04:07:57;;;;;;;0.73;0.73;;;;;15.60;95948.00;;;;5035330;28;20236;-60
2023/08/09 04:10:24;;;;;;;0.90;0.90;;;;;15.50;95956.00;;;;5035473;28;20559;-59
2023/08/09 04:12:52;;;;;;;0.50;0.50;;;;;15.50;95946.00;;;;5035202;28;20219;-60
2023/08/09 04:15:21;;;;;;;0.70;0.70;;;;;15.50;95959.00;;;;5035187;28;20193;-60
2023/08/09 04:17:49;;;;;;;0.70;0.70;;;;;15.60;95939.00;;;;5035110;28;20209;-59
2023/08/09 04:20:17;;;;;;;1.97;1.40;;;;;15.70;95940.00;;;;5035182;28;20184;-59
2023/08/09 04:22:44;;;;;;;0.53;0.53;;;;;15.70;95945.00;;;;5035241;28;20259;-60
2023/08/09 04:25:11;;;;;;;0.83;0.83;;;;;15.70;95944.00;;;;5035151;28;20192;-60
2023/08/09 04:27:40;;;;;;;0.93;0.93;;;;;15.70;95952.00;;;;5033439;28;20224;-60
2023/08/09 04:30:10;;;;;;;0.60;0.60;;;;;15.80;95962.00;;;;5034731;28;20189;-60
2023/08/09 04:32:39;;;;;;;0.50;0.50;;;;;15.80;95955.00;;;;5033381;28;20197;-60
2023/08/09 04:35:08;;;;;;;0.80;0.80;;;;;15.90;95949.00;;;;5035084;28;20227;-60
2023/08/09 04:37:35;;;;;;;0.50;0.50;;;;;15.70;95953.00;;;;5034883;28;20585;-60
2023/08/09 04:40:03;;;;;;;0.60;0.60;;;;;15.70;95947.00;;;;5034833;28;20200;-60
2023/08/09 04:42:31;;;;;;;0.80;0.80;;;;;15.80;95954.00;;;;5034636;28;20208;-60
2023/08/09 04:44:58;;;;;;;1.70;1.60;;;;;15.80;95950.00;;;;5034755;28;20192;-60
2023/08/09 04:47:26;;;;;;;0.60;0.60;;;;;15.70;95949.00;;;;5032986;28;20232;-60
2023/08/09 04:49:54;;;;;;;1.70;1.30;;;;;15.80;95945.00;;;;5034352;28;20202;-61
2023/08/09 04:52:22;;;;;;;1.20;1.13;;;;;15.80;95945.00;;;;5034399;28;20228;-61
2023/08/09 04:54:50;;;;;;;0.70;0.70;;;;;15.80;95952.00;;;;5035333;28;20600;-60
2023/08/09 04:57:17;;;;;;;0.80;0.80;;;;;15.60;95949.00;;;;5034138;28;20212;-60
2023/08/09 04:59:44;;;;;;;4.23;1.23;;;;;15.90;95948.00;;;;5034329;28;20554;-61
2023/08/09 05:02:12;;;;;;;0.50;0.50;;;;;15.80;95950.00;;;;5034380;28;20193;-61
2023/08/09 05:04:39;;;;;;;0.60;0.60;;;;;15.80;95942.00;;;;5034324;28;20201;-59
2023/08/09 05:07:08;;;;;;;0.70;0.70;;;;;16.00;95943.00;;;;5033802;28;20213;-61
2023/08/09 05:09:36;;;;;;;0.60;0.60;;;;;15.90;95956.00;;;;5033913;28;20205;-61
2023/08/09 05:12:03;;;;;;;0.60;0.60;;;;;15.90;95944.00;;;;5033970;28;20204;-61
2023/08/09 05:14:31;;;;;;;0.90;0.90;;;;;16.00;95952.00;;;;5032535;28;20212;-60
2023/08/09 05:16:58;;;;;;;0.70;0.70;;;;;15.90;95942.00;;;;5034005;28;20225;-60
2023/08/09 05:19:26;;;;;;;0.73;0.73;;;;;16.10;95942.00;;;;5033775;28;20552;-61
2023/08/09 05:21:53;;;;;;;0.90;0.90;;;;;15.90;95954.00;;;;5032417;28;20293;-61
2023/08/09 05:24:22;;;;;;;0.87;0.87;;;;;15.90;95945.00;;;;5033990;28;20199;-61
2023/08/09 05:26:49;;;;;;;0.50;0.50;;;;;15.90;95939.00;;;;5033573;28;20217;-61
2023/08/09 05:29:17;;;;;;;1.00;1.00;;;;;15.90;95935.00;;;;5033865;28;20607;-61
2023/08/09 05:31:44;;;;;;;0.80;0.80;;;;;16.10;95937.00;;;;5032618;28;20197;-60
2023/08/09 05:34:12;;;;;;;1.03;1.03;;;;;16.10;95944.00;;;;5034397;28;20203;-61
2023/08/09 05:36:39;;;;;;;0.70;0.70;;;;;16.10;95938.00;;;;5034058;28;20212;-60
2023/08/09 05:39:08;;;;;;;0.60;0.60;;;;;16.10;95943.00;;;;5034337;28;20644;-61
2023/08/09 05:41:37;;;;;;;1.30;0.97;;;;;16.10;95943.00;;;;5033887;28;20690;-61
2023/08/09 05:44:05;;;;;;;0.70;0.70;;;;;16.10;95945.00;;;;5033427;28;20215;-60
2023/08/09 05:46:33;;;;;;;0.67;0.67;;;;;16.00;95947.00;;;;5033277;28;20208;-59
2023/08/09 05:49:00;;;;;;;1.40;1.13;;;;;16.00;95941.00;;;;5033266;28;20212;-60
2023/08/09 05:51:29;;;;;;;0.60;0.60;;;;;16.10;95947.00;;;;5033459;28;20192;-60
2023/08/09 05:53:57;;;;;;;0.70;0.70;;;;;16.00;95947.00;;;;5033577;28;20224;-60
2023/08/09 05:56:24;;;;;;;0.70;0.70;;;;;15.90;95953.00;;;;5033845;28;20580;-60
2023/08/09 05:58:53;;;;;;;3.30;1.37;;;;;15.80;95953.00;;;;5033228;28;20200;-61
2023/08/09 06:01:21;;;;;;;0.90;0.90;;;;;15.80;95951.00;;;;5033153;28;20200;-60
2023/08/09 06:03:48;;;;;;;2.80;1.40;;;;;15.90;95953.00;;;;5033358;28;20275;-62
2023/08/09 06:06:16;;;;;;;0.73;0.73;;;;;16.10;95946.00;;;;5033081;28;20774;-62
2023/08/09 06:08:44;;;;;;;1.00;1.00;;;;;15.90;95956.00;;;;5033444;28;20271;-62
2023/08/09 06:11:12;;;;;;;0.60;0.60;;;;;16.10;95954.00;;;;5033511;28;20631;-60
2023/08/09 06:13:39;;;;;;;1.43;0.87;;;;;16.00;95957.00;;;;5033165;28;20203;-61
2023/08/09 06:16:08;;;;;;;0.40;0.40;;;;;16.10;95954.00;;;;5032414;28;20612;-60
2023/08/09 06:18:36;;;;;;;0.77;0.77;;;;;16.20;95956.00;;;;5039196;28;20608;-60
2023/08/09 06:21:04;;;;;;;1.67;1.57;;;;;16.20;95970.00;;;;5039730;28;20598;-60
2023/08/09 06:23:31;;;;;;;0.70;0.70;;;;;16.30;95973.00;;;;5039778;28;20193;-61
2023/08/09 06:25:59;;;;;;;0.60;0.60;;;;;16.40;95960.00;;;;5036813;28;20233;-61
2023/08/09 06:28:27;;;;;;;0.70;0.70;;;;;16.20;95952.00;;;;5035268;28;20224;-62
2023/08/09 06:30:54;;;;;;;1.03;1.03;;;;;16.30;95972.00;;;;5036702;28;20212;-61
2023/08/09 06:33:23;;;;;;;1.00;1.00;;;;;16.30;95970.00;;;;5038217;28;20207;-61
2023/08/09 06:35:50;;;;;;;0.60;0.60;;;;;16.40;95973.00;;;;5038133;28;20644;-61
2023/08/09 06:38:18;;;;;;;0.60;0.60;;;;;16.30;95976.00;;;;5037737;28;20192;-60
2023/08/09 06:40:45;;;;;;;0.67;0.67;;;;;16.30;95979.00;;;;5037590;28;20627;-61
2023/08/09 06:43:13;;;;;;;0.73;0.73;;;;;16.50;95972.00;;;;5037925;28;20207;-61
2023/08/09 06:45:40;;;;;;;1.57;1.47;;;;;16.60;95972.00;;;;5036613;28;20203;-62
2023/08/09 06:48:08;;;;;;;0.50;0.50;;;;;16.50;95975.00;;;;5037501;28;20575;-61
2023/08/09 06:50:38;;;;;;;0.60;0.60;;;;;16.70;95978.00;;;;5037735;28;20231;-62
2023/08/09 06:53:05;;;;;;;0.60;0.60;;;;;16.50;95983.00;;;;5037752;28;20203;-61
2023/08/09 06:55:33;;;;;;;0.63;0.63;;;;;16.60;95993.00;;;;5037506;28;20287;-61
2023/08/09 06:58:00;;;;;;;1.30;1.23;;;;;16.60;95976.00;;;;5037738;28;20204;-62
2023/08/09 07:00:28;;;;;;;0.70;0.70;;;;;16.50;95984.00;;;;5037466;28;20200;-61
2023/08/09 07:02:55;;;;;;;0.80;0.80;;;;;16.40;95992.00;;;;5037432;28;20199;-61
2023/08/09 07:05:24;;;;;;;0.90;0.90;;;;;16.30;95993.00;;;;5037652;28;20203;-61
2023/08/09 07:07:54;;;;;;;0.67;0.67;;;;;16.40;95995.00;;;;5035997;28;20224;-61
2023/08/09 07:10:22;;;;;;;0.40;0.40;;;;;16.30;96001.00;;;;5037396;28;20197;-61
2023/08/09 07:12:49;;;;;;;0.80;0.80;;;;;16.40;96003.00;;;;5037082;28;20291;-61
2023/08/09 07:15:17;;;;;;;0.87;0.57;;;;;16.30;95999.00;;;;5037138;28;21441;-59
2023/08/09 07:17:44;;;;;;;0.40;0.40;;;;;16.20;96008.00;;;;5037247;28;20306;-59
2023/08/09 07:20:14;;;;;;;4.30;1.03;;;;;16.30;96017.00;;;;5037203;28;20243;-59
2023/08/09 07:22:41;;;;;;;0.60;0.60;;;;;16.30;96002.00;;;;5035724;28;20527;-59
2023/08/09 07:25:13;;;;;;;0.97;0.97;;;;;16.50;96013.00;;;;5036946;28;20231;-60
2023/08/09 07:27:45;;;;;;;0.50;0.50;;;;;16.60;96014.00;;;;5036290;28;20290;-61
2023/08/09 07:30:14;;;;;;;0.50;0.50;;;;;16.60;96020.00;;;;5034507;28;20207;-59
2023/08/09 07:32:42;;;;;;;2.23;0.80;;;;;16.60;96024.00;;;;5034240;28;20284;-60
2023/08/09 07:35:11;;;;;;;0.90;0.90;;;;;16.80;96022.00;;;;5034220;28;20201;-60
2023/08/09 07:37:43;;;;;;;0.70;0.70;;;;;16.70;96018.00;;;;5029214;28;20224;-61
2023/08/09 07:40:13;;;;;;;0.80;0.80;;;;;16.70;96021.00;;;;5029864;28;20552;-61
2023/08/09 07:42:41;;;;;;;0.50;0.50;;;;;16.70;96016.00;;;;5033268;28;20235;-60
2023/08/09 07:45:10;;;;;;;0.60;0.60;;;;;17.10;96018.00;;;;5033862;28;20279;-60
2023/08/09 07:47:38;;;;;;;0.77;0.77;;;;;17.10;96005.00;;;;5034017;28;20219;-60
2023/08/09 07:50:06;;;;;;;0.80;0.80;;;;;17.30;96008.00;;;;5033419;28;20196;-61
2023/08/09 07:52:34;;;;;;;2.50;0.90;;;;;17.60;96019.00;;;;5034311;28;20221;-61
2023/08/09 07:55:02;;;;;;;0.80;0.80;;;;;17.80;96021.00;;;;5033430;28;20207;-60
2023/08/09 07:57:30;;;;;;;0.60;0.60;;;;;17.90;96026.00;;;;5033929;28;20256;-60
2023/08/09 07:59:58;;;;;;;0.40;0.40;;;;;18.10;96028.00;;;;5033678;28;20213;-60
2023/08/09 08:02:25;;;;;;;0.70;0.70;;;;;18.10;96029.00;;;;5032899;28;20201;-61
2023/08/09 08:04:53;;;;;;;1.43;0.80;;;;;17.90;96016.00;;;;5033330;28;20193;-62
2023/08/09 08:07:20;;;;;;;1.17;0.80;;;;;18.30;96027.00;;;;5033854;28;20220;-61
2023/08/09 08:09:49;;;;;;;0.70;0.70;;;;;18.30;96027.00;;;;5033369;28;20220;-60
2023/08/09 08:12:17;;;;;;;0.50;0.50;;;;;18.30;96034.00;;;;5034749;28;20283;-61
2023/08/09 08:14:45;;;;;;;3.40;1.03;;;;;18.30;96024.00;;;;5032294;28;20201;-61
2023/08/09 08:17:13;;;;;;;0.60;0.60;;;;;18.20;96023.00;;;;5033828;28;20221;-60
2023/08/09 08:19:40;;;;;;;0.50;0.50;;;;;18.60;96026.00;;;;5033296;28;20223;-61
2023/08/09 08:22:08;;;;;;;0.70;0.70;;;;;18.40;96033.00;;;;5033882;28;20197;-61
2023/08/09 08:24:35;;;;;;;0.80;0.80;;;;;18.60;96038.00;;;;5032995;28;20211;-61
2023/08/09 08:27:02;;;;;;;0.60;0.60;;;;;18.50;96045.00;;;;5033710;28;20226;-61
2023/08/09 08:29:30;;;;;;;0.40;0.40;;;;;18.40;96052.00;;;;5033397;28;20300;-60
2023/08/09 08:32:00;;;;;;;0.80;0.80;;;;;18.60;96049.00;;;;5033483;28;20268;-61
2023/08/09 08:34:31;;;;;;;1.00;1.00;;;;;18.60;96068.00;;;;5032811;28;20228;-61
2023/08/09 08:36:58;;;;;;;0.90;0.90;;;;;18.20;96064.00;;;;5033711;28;20235;-61
2023/08/09 08:39:28;;;;;;;0.90;0.90;;;;;18.20;96060.00;;;;5031667;28;20201;-61
2023/08/09 08:41:56;;;;;;;0.60;0.60;;;;;18.10;96071.00;;;;5033604;28;20204;-60
2023/08/09 08:44:24;;;;;;;0.70;0.70;;;;;17.90;96072.00;;;;5031417;28;20299;-61
2023/08/09 08:46:52;;;;;;;0.80;0.80;;;;;17.80;96087.00;;;;5033508;28;20224;-60
2023/08/09 08:49:24;;;;;;;0.50;0.50;;;;;17.80;96067.00;;;;5033749;28;20707;-60
2023/08/09 08:51:56;;;;;;;5.30;1.90;;;;;18.20;96068.00;;;;5033097;28;20575;-61
2023/08/09 08:54:24;;;;;;;0.53;0.53;;;;;18.40;96076.00;;;;5032730;28;20204;-60
2023/08/09 08:56:52;;;;;;;0.60;0.60;;;;;18.40;96081.00;;;;5034240;28;20248;-61
2023/08/09 08:59:21;;;;;;;0.60;0.60;;;;;18.40;96066.00;;;;5032863;28;20254;-61
2023/08/09 09:01:48;;;;;;;0.70;0.70;;;;;18.80;96078.00;;;;5028564;28;20196;-60
2023/08/09 09:04:16;;;;;;;1.03;1.03;;;;;18.80;96071.00;;;;5033178;28;20192;-60
2023/08/09 09:06:45;;;;;;;0.60;0.60;;;;;18.90;96070.00;;;;5032598;28;20228;-61
2023/08/09 09:09:14;;;;;;;0.70;0.70;;;;;18.70;96078.00;;;;5030902;28;20673;-61
2023/08/09 09:11:43;;;;;;;0.90;0.90;;;;;18.50;96078.00;;;;5032897;28;20275;-62
2023/08/09 09:14:11;;;;;;;0.70;0.70;;;;;18.90;96086.00;;;;5032186;28;20268;-61
2023/08/09 09:16:39;;;;;;;0.77;0.77;;;;;18.80;96087.00;;;;5032694;28;20255;-61
2023/08/09 09:19:08;;;;;;;0.77;0.77;;;;;18.80;96088.00;;;;5032171;28;20200;-60
2023/08/09 09:21:36;;;;;;;0.60;0.60;;;;;18.80;96084.00;;;;5032864;28;20576;-61
2023/08/09 09:24:07;;;;;;;0.60;0.60;;;;;18.70;96078.00;;;;5030985;28;20193;-61
2023/08/09 09:26:35;;;;;;;0.50;0.50;;;;;18.90;96085.00;;;;5032614;28;20642;-59
2023/08/09 09:29:02;;;;;;;0.47;0.47;;;;;18.80;96084.00;;;;5031800;28;20303;-61
2023/08/09 09:31:36;;;;;;;1.00;0.87;;;;;18.60;96088.00;;;;5032299;28;20573;-62
2023/08/09 09:34:06;;;;;;;0.60;0.60;;;;;18.70;96086.00;;;;5031691;28;20584;-61
2023/08/09 09:36:37;;;;;;;0.50;0.50;;;;;18.50;96078.00;;;;5032080;28;20299;-61
2023/08/09 09:39:11;;;;;;;0.60;0.60;;;;;18.80;96082.00;;;;5031691;28;20657;-60
2023/08/09 09:41:39;;;;;;;0.50;0.50;;;;;18.60;96094.00;;;;5032150;28;20548;-60
2023/08/09 09:44:07;;;;;;;0.40;0.40;;;;;18.70;96100.00;;;;5031295;28;20196;-60
2023/08/09 09:46:41;;;;;;;0.63;0.63;;;;;18.90;96091.00;;;;5031779;28;20647;-60
2023/08/09 09:49:09;;;;;;;0.70;0.70;;;;;18.70;96084.00;;;;5031594;28;20204;-61
2023/08/09 09:51:36;;;;;;;0.77;0.77;;;;;18.70;96092.00;;;;5029769;28;20699;-61
2023/08/09 09:54:06;;;;;;;0.60;0.60;;;;;18.90;96093.00;;;;5031768;28;20196;-60
2023/08/09 09:56:35;;;;;;;0.77;0.77;;;;;19.30;96099.00;;;;5031669;28;20220;-60
2023/08/09 09:59:04;;;;;;;2.53;0.77;;;;;19.20;96090.00;;;;5031170;28;20733;-61
2023/08/09 10:01:35;;;;;;;0.80;0.80;;;;;19.30;96096.00;;;;5031831;28;20283;-60
2023/08/09 10:04:07;;;;;;;0.60;0.60;;;;;19.40;96088.00;;;;5029731;28;20193;-60
2023/08/09 10:06:37;;;;;;;0.73;0.73;;;;;19.10;96098.00;;;;5031390;28;20719;-61
2023/08/09 10:09:04;;;;;;;0.60;0.60;;;;;18.90;96093.00;;;;5030709;28;20691;-60
2023/08/09 10:11:37;;;;;;;0.77;0.77;;;;;19.40;96087.00;;;;5031258;28;20250;-61
2023/08/09 10:14:07;;;;;;;0.70;0.70;;;;;19.20;96085.00;;;;5031632;28;20216;-61
2023/08/09 10:16:36;;;;;;;1.00;0.97;;;;;19.20;96098.00;;;;5031171;28;20284;-60
2023/08/09 10:19:08;;;;;;;0.60;0.60;;;;;19.30;96093.00;;;;5031251;28;20193;-61
2023/08/09 10:21:36;;;;;;;0.50;0.50;;;;;19.30;96098.00;;;;5031639;28;20192;-61
2023/08/09 10:24:08;;;;;;;0.50;0.50;;;;;19.30;96098.00;;;;5031033;28;20625;-62
2023/08/09 10:26:39;;;;;;;3.30;1.03;;;;;19.60;96095.00;;;;5025697;28;20216;-61
2023/08/09 10:29:08;;;;;;;0.40;0.40;;;;;19.50;96094.00;;;;5030751;28;20208;-61
2023/08/09 10:32:05;;;;;;;0.60;0.60;;;;;19.50;96097.00;;;;5031429;28;20618;-62
2023/08/09 10:34:36;;;;;;;0.87;0.87;;;;;19.70;96094.00;;;;4996978;28;20217;-61
2023/08/09 10:37:06;;;;;;;0.50;0.50;;;;;19.90;96091.00;;;;5031324;28;20217;-61
2023/08/09 10:39:34;;;;;;;0.63;0.63;;;;;19.70;96081.00;;;;5030828;28;20196;-61
2023/08/09 10:42:06;;;;;;;0.50;0.50;;;;;19.60;96091.00;;;;5031226;28;20668;-61
2023/08/09 10:44:39;;;;;;;1.07;1.03;;;;;19.30;96087.00;;;;5030992;28;20641;-60
2023/08/09 10:47:09;;;;;;;0.80;0.80;;;;;19.20;96090.00;;;;5030877;28;20225;-60
2023/08/09 10:50:02;;;;;;;0.83;0.83;;;;;19.40;96094.00;;;;5030380;28;20722;-62
2023/08/09 10:52:35;;;;;;;0.50;0.50;;;;;19.70;96074.00;;;;5029814;28;20225;-61
2023/08/09 10:55:28;;;;;;;0.43;0.43;;;;;20.10;96075.00;;;;5031235;28;20487;-61
2023/08/09 10:58:01;;;;;;;0.87;0.87;;;;;20.40;96069.00;;;;5031019;28;20228;-61
2023/08/09 11:00:37;;;;;;;0.50;0.50;;;;;20.80;96079.00;;;;5029318;28;20201;-61
2023/08/09 11:03:05;;;;;;;0.80;0.80;;;;;20.40;96085.00;;;;5032434;28;20196;-61
2023/08/09 11:05:33;;;;;;;0.40;0.40;;;;;20.40;96087.00;;;;5034086;28;20200;-61
2023/08/09 11:08:10;;;;;;;0.50;0.50;;;;;20.50;96078.00;;;;5034912;28;20204;-61
2023/08/09 11:10:39;;;;;;;0.40;0.40;;;;;20.60;96101.00;;;;5034957;28;20270;-61
2023/08/09 11:13:09;;;;;;;0.50;0.50;;;;;20.40;96084.00;;;;5034511;28;20557;-62
2023/08/09 11:15:38;;;;;;;0.80;0.80;;;;;20.20;96092.00;;;;5034362;28;20188;-61
2023/08/09 11:18:06;;;;;;;0.40;0.40;;;;;20.40;96091.00;;;;5034644;28;20283;-61
2023/08/09 11:20:34;;;;;;;0.60;0.60;;;;;20.80;96089.00;;;;5029859;28;20664;-60
2023/08/09 11:23:03;;;;;;;0.97;0.97;;;;;20.70;96092.00;;;;5030236;28;20288;-61
2023/08/09 11:25:32;;;;;;;0.60;0.60;;;;;20.20;96079.00;;;;5029893;28;20246;-61
2023/08/09 11:28:02;;;;;;;0.47;0.47;;;;;20.60;96077.00;;;;5034466;28;20243;-60
2023/08/09 11:30:33;;;;;;;0.50;0.50;;;;;20.50;96074.00;;;;5033891;28;20217;-62
2023/08/09 11:33:02;;;;;;;0.70;0.70;;;;;20.50;96078.00;;;;5033515;28;20530;-61
2023/08/09 11:35:36;;;;;;;0.60;0.60;;;;;20.20;96089.00;;;;5033557;28;20235;-61
2023/08/09 11:38:09;;;;;;;0.40;0.40;;;;;20.10;96088.00;;;;5033725;28;20585;-61
2023/08/09 11:40:44;;;;;;;0.80;0.80;;;;;20.40;96090.00;;;;5032424;28;20189;-60
2023/08/09 11:43:13;;;;;;;0.50;0.50;;;;;20.60;96083.00;;;;5033923;28;20196;-61
2023/08/09 11:45:50;;;;;;;1.20;1.10;;;;;20.20;96101.00;;;;5033258;28;20533;-62
2023/08/09 11:48:29;;;;;;;0.50;0.50;;;;;20.20;96100.00;;;;5033351;28;20538;-60
2023/08/09 11:51:06;;;;;;;1.03;0.80;;;;;20.20;96098.00;;;;5033806;28;20695;-61
2023/08/09 11:53:34;;;;;;;0.50;0.50;;;;;19.60;96103.00;;;;5033422;28;20196;-60
2023/08/09 11:56:04;;;;;;;0.70;0.70;;;;;19.40;96089.00;;;;5033330;28;20221;-59
2023/08/09 11:58:35;;;;;;;0.90;0.90;;;;;19.90;96101.00;;;;5033599;28;20283;-62
2023/08/09 12:01:15;;;;;;;0.70;0.70;;;;;19.80;96101.00;;;;5033624;28;20641;-60
2023/08/09 12:03:42;;;;;;;0.50;0.50;;;;;19.90;96094.00;;;;5034133;28;20204;-61
2023/08/09 12:06:10;;;;;;;0.80;0.80;;;;;20.00;96105.00;;;;5033091;28;20700;-61
2023/08/09 12:08:38;;;;;;;0.63;0.63;;;;;20.50;96095.00;;;;5033247;28;20203;-61
2023/08/09 12:11:06;;;;;;;0.50;0.50;;;;;20.30;96099.00;;;;5033209;28;20630;-61
2023/08/09 12:13:34;;;;;;;0.93;0.93;;;;;20.60;96107.00;;;;5033390;28;20207;-61
2023/08/09 12:16:06;;;;;;;0.97;0.97;;;;;21.10;96100.00;;;;5032007;28;20660;-61
2023/08/09 12:18:37;;;;;;;0.50;0.50;;;;;21.10;96108.00;;;;5033632;28;20189;-61
2023/08/09 12:21:08;;;;;;;0.50;0.50;;;;;20.90;96113.00;;;;5032345;28;20189;-61
2023/08/09 12:23:38;;;;;;;0.50;0.50;;;;;20.90;96102.00;;;;5032633;28;20185;-61
2023/08/09 12:26:07;;;;;;;1.65;1.55;;;;;21.30;96106.00;;;;5032992;28;20225;-61